createdAt,value
2023-02-15T00:00:12.261Z,100.00
2023-02-15T00:02:40.041Z,100.00
2023-02-15T00:05:09.428Z,100.00
2023-02-15T00:07:37.634Z,100.00
2023-02-15T00:10:06.691Z,100.00
2023-02-15T00:12:34.672Z,100.00
2023-02-15T00:15:04.036Z,100.00
2023-02-15T00:17:32.006Z,100.00
2023-02-15T00:19:59.742Z,100.00
2023-02-15T00:22:28.006Z,100.00
2023-02-15T00:24:55.852Z,100.00
2023-02-15T00:27:24.021Z,100.00
2023-02-15T00:29:52.085Z,100.00
2023-02-15T00:32:21.299Z,100.00
2023-02-15T00:34:49.171Z,100.00
2023-02-15T00:37:18.070Z,100.00
2023-02-15T00:39:48.842Z,100.00
2023-02-15T00:42:16.710Z,100.00
2023-02-15T00:44:44.600Z,100.00
2023-02-15T00:47:12.483Z,100.00
2023-02-15T00:49:41.991Z,100.00
2023-02-15T00:52:09.839Z,100.00
2023-02-15T00:54:39.733Z,100.00
2023-02-15T00:57:07.614Z,100.00
2023-02-15T00:59:35.538Z,100.00
2023-02-15T01:02:03.492Z,100.00
2023-02-15T01:04:31.506Z,100.00
2023-02-15T01:07:00.762Z,100.00
2023-02-15T01:09:28.651Z,100.00
2023-02-15T01:11:57.740Z,100.00
2023-02-15T01:14:28.029Z,100.00
2023-02-15T01:16:56.006Z,100.00
2023-02-15T01:19:23.892Z,100.00
2023-02-15T01:21:51.836Z,100.00
2023-02-15T01:24:21.162Z,100.00
2023-02-15T01:26:49.144Z,100.00
2023-02-15T01:29:17.259Z,100.00
2023-02-15T01:31:45.217Z,100.00
2023-02-15T01:34:16.056Z,100.00
2023-02-15T01:36:44.057Z,100.00
2023-02-15T01:39:12.141Z,100.00
2023-02-15T01:41:41.503Z,100.00
2023-02-15T01:44:42.881Z,100.00
2023-02-15T01:47:13.805Z,100.00
2023-02-15T01:49:44.311Z,100.00
2023-02-15T01:52:16.341Z,100.00
2023-02-15T01:54:48.001Z,100.00
2023-02-15T01:57:21.376Z,100.00
2023-02-15T01:59:55.825Z,100.00
2023-02-15T02:02:25.334Z,100.00
2023-02-15T02:04:57.082Z,100.00
2023-02-15T02:07:28.437Z,100.00
2023-02-15T02:09:56.912Z,100.00
2023-02-15T02:12:27.869Z,100.00
2023-02-15T02:14:57.144Z,100.00
2023-02-15T02:17:36.826Z,100.00
2023-02-15T02:20:28.044Z,100.00
2023-02-15T02:23:18.342Z,100.00
2023-02-15T02:26:01.231Z,100.00
2023-02-15T02:28:51.743Z,100.00
2023-02-15T02:31:45.955Z,100.00
2023-02-15T02:34:21.442Z,100.00
2023-02-15T02:36:57.499Z,100.00
2023-02-15T02:39:33.131Z,100.00
2023-02-15T02:42:07.932Z,100.00
2023-02-15T02:44:45.199Z,100.00
2023-02-15T02:47:19.394Z,100.00
2023-02-15T02:49:48.800Z,100.00
2023-02-15T02:52:41.612Z,100.00
2023-02-15T02:55:15.178Z,100.00
2023-02-15T02:57:50.191Z,100.00
2023-02-15T03:00:20.713Z,100.00
2023-02-15T03:02:54.548Z,100.00
2023-02-15T03:05:28.821Z,100.00
2023-02-15T03:07:58.798Z,100.00
2023-02-15T03:10:27.310Z,100.00
2023-02-15T03:12:55.644Z,100.00
2023-02-15T03:15:26.801Z,100.00
2023-02-15T03:18:03.723Z,100.00
2023-02-15T03:20:38.122Z,100.00
2023-02-15T03:23:13.319Z,100.00
2023-02-15T03:25:44.138Z,100.00
2023-02-15T03:28:17.397Z,100.00
2023-02-15T03:30:50.490Z,100.00
2023-02-15T03:33:19.590Z,100.00
2023-02-15T03:35:55.238Z,100.00
2023-02-15T03:38:31.722Z,100.00
2023-02-15T03:41:13.187Z,100.00
2023-02-15T03:43:49.597Z,100.00
2023-02-15T03:46:23.899Z,100.00
2023-02-15T03:48:55.801Z,100.00
2023-02-15T03:51:39.068Z,100.00
2023-02-15T03:54:11.101Z,100.00
2023-02-15T03:56:42.148Z,100.00
2023-02-15T03:59:28.148Z,100.00
2023-02-15T04:02:08.789Z,100.00
2023-02-15T04:04:38.547Z,100.00
2023-02-15T04:07:10.246Z,100.00
2023-02-15T04:09:55.898Z,100.00
2023-02-15T04:12:24.664Z,100.00
2023-02-15T04:15:10.427Z,100.00
2023-02-15T04:17:38.850Z,100.00
2023-02-15T04:20:25.530Z,100.00
2023-02-15T04:23:12.227Z,100.00
2023-02-15T04:25:40.028Z,100.00
2023-02-15T04:28:08.623Z,100.00
2023-02-15T04:30:36.693Z,100.00
2023-02-15T04:33:04.835Z,100.00
2023-02-15T04:35:34.419Z,100.00
2023-02-15T04:38:03.857Z,100.00
2023-02-15T04:40:31.832Z,100.00
2023-02-15T04:42:59.662Z,100.00
2023-02-15T04:45:28.123Z,100.00
2023-02-15T04:47:56.069Z,100.00
2023-02-15T04:50:24.252Z,100.00
2023-02-15T04:52:52.049Z,100.00
2023-02-15T04:55:21.439Z,100.00
2023-02-15T04:57:49.323Z,100.00
2023-02-15T05:00:17.700Z,100.00
2023-02-15T05:02:45.572Z,100.00
2023-02-15T05:05:16.154Z,100.00
2023-02-15T05:07:44.050Z,100.00
2023-02-15T05:10:11.976Z,100.00
2023-02-15T05:12:41.380Z,100.00
2023-02-15T05:15:10.136Z,100.00
2023-02-15T05:17:38.282Z,100.00
2023-02-15T05:20:07.578Z,100.00
2023-02-15T05:22:35.454Z,100.00
2023-02-15T05:25:20.889Z,100.00
2023-02-15T05:28:07.611Z,100.00
2023-02-15T05:30:35.628Z,100.00
2023-02-15T05:33:03.645Z,100.00
2023-02-15T05:35:31.417Z,100.00
2023-02-15T05:37:59.332Z,100.00
2023-02-15T05:40:27.481Z,100.00
2023-02-15T05:42:56.711Z,100.00
2023-02-15T05:45:24.658Z,100.00
2023-02-15T05:47:52.898Z,100.00
2023-02-15T05:50:20.993Z,100.00
2023-02-15T05:52:50.396Z,100.00
2023-02-15T05:55:19.698Z,100.00
2023-02-15T05:57:47.895Z,100.00
2023-02-15T06:00:18.207Z,100.00
2023-02-15T06:02:46.212Z,100.00
2023-02-15T06:05:14.484Z,100.00
2023-02-15T06:07:45.266Z,100.00
2023-02-15T06:10:13.447Z,100.00
2023-02-15T06:12:41.722Z,100.00
2023-02-15T06:15:10.378Z,100.00
2023-02-15T06:17:39.819Z,100.00
2023-02-15T06:20:09.299Z,100.00
2023-02-15T06:22:37.277Z,100.00
2023-02-15T06:25:05.579Z,100.00
2023-02-15T06:27:33.689Z,100.00
2023-02-15T06:30:01.580Z,100.00
2023-02-15T06:32:30.199Z,100.00
2023-02-15T06:34:59.475Z,100.00
2023-02-15T06:37:27.644Z,100.00
2023-02-15T06:39:55.488Z,100.00
2023-02-15T06:42:23.865Z,100.00
2023-02-15T06:44:51.799Z,100.00
2023-02-15T06:47:19.671Z,100.00
2023-02-15T06:49:47.514Z,100.00
2023-02-15T06:52:16.810Z,100.00
2023-02-15T06:54:44.677Z,100.00
2023-02-15T06:57:12.475Z,100.00
2023-02-15T06:59:40.362Z,100.00
2023-02-15T07:02:08.225Z,100.00
2023-02-15T07:04:36.720Z,100.00
2023-02-15T07:07:04.721Z,100.00
2023-02-15T07:09:34.175Z,100.00
2023-02-15T07:12:19.424Z,100.00
2023-02-15T07:14:47.340Z,100.00
2023-02-15T07:17:34.998Z,100.00
2023-02-15T07:20:03.198Z,100.00
2023-02-15T07:22:31.119Z,100.00
2023-02-15T07:25:00.459Z,100.00
2023-02-15T07:27:28.497Z,100.00
2023-02-15T07:29:56.413Z,100.00
2023-02-15T07:32:24.441Z,100.00
2023-02-15T07:34:52.351Z,100.00
2023-02-15T07:37:20.469Z,100.00
2023-02-15T07:39:48.289Z,100.00
2023-02-15T07:42:18.839Z,100.00
2023-02-15T07:44:48.269Z,100.00
2023-02-15T07:47:16.073Z,100.00
2023-02-15T07:49:43.931Z,100.00
2023-02-15T07:52:11.956Z,100.00
2023-02-15T07:54:39.911Z,100.00
2023-02-15T07:57:07.961Z,100.00
2023-02-15T07:59:37.208Z,100.00
2023-02-15T08:02:05.095Z,100.00
2023-02-15T08:04:33.050Z,100.00
2023-02-15T08:07:00.813Z,100.00
2023-02-15T08:09:28.633Z,100.00
2023-02-15T08:11:56.583Z,100.00
2023-02-15T08:14:24.478Z,100.00
2023-02-15T08:16:55.779Z,100.00
2023-02-15T08:19:25.567Z,100.00
2023-02-15T08:21:55.590Z,100.00
2023-02-15T08:24:25.251Z,100.00
2023-02-15T08:26:54.123Z,100.00
2023-02-15T08:29:24.783Z,100.00
2023-02-15T08:31:56.451Z,100.00
2023-02-15T08:34:24.541Z,100.00
2023-02-15T08:36:53.002Z,100.00
2023-02-15T08:39:21.162Z,100.00
2023-02-15T08:41:49.935Z,100.00
2023-02-15T08:44:20.026Z,100.00
2023-02-15T08:46:48.744Z,100.00
2023-02-15T08:49:20.611Z,100.00
2023-02-15T08:51:50.361Z,100.00
2023-02-15T08:54:20.267Z,100.00
2023-02-15T08:56:48.847Z,100.00
2023-02-15T08:59:18.487Z,100.00
2023-02-15T09:01:47.552Z,100.00
2023-02-15T09:04:16.961Z,100.00
2023-02-15T09:06:49.077Z,100.00
2023-02-15T09:09:17.574Z,100.00
2023-02-15T09:11:47.051Z,100.00
2023-02-15T09:14:16.189Z,100.00
2023-02-15T09:16:47.260Z,100.00
2023-02-15T09:19:15.597Z,100.00
2023-02-15T09:21:43.607Z,100.00
2023-02-15T09:24:15.143Z,100.00
2023-02-15T09:26:46.757Z,100.00
2023-02-15T09:29:16.269Z,100.00
2023-02-15T09:31:46.467Z,100.00
2023-02-15T09:34:16.985Z,100.00
2023-02-15T09:36:44.896Z,100.00
2023-02-15T09:39:17.207Z,100.00
2023-02-15T09:42:17.953Z,100.00
2023-02-15T09:45:05.519Z,100.00
2023-02-15T09:47:56.932Z,100.00
2023-02-15T09:50:35.689Z,100.00
2023-02-15T09:53:30.635Z,100.00
2023-02-15T09:56:04.793Z,100.00
2023-02-15T09:58:46.553Z,100.00
2023-02-15T10:01:22.368Z,100.00
2023-02-15T10:04:07.122Z,100.00
2023-02-15T10:06:42.778Z,100.00
2023-02-15T10:09:29.613Z,100.00
2023-02-15T10:12:13.324Z,100.00
2023-02-15T10:14:59.054Z,100.00
2023-02-15T10:17:39.397Z,100.00
2023-02-15T10:20:19.957Z,100.00
2023-02-15T10:23:02.610Z,100.00
2023-02-15T10:25:44.122Z,100.00
2023-02-15T10:28:18.413Z,100.00
2023-02-15T10:30:51.797Z,100.00
2023-02-15T10:33:39.702Z,100.00
2023-02-15T10:36:19.913Z,100.00
2023-02-15T10:38:53.993Z,100.00
2023-02-15T10:41:35.455Z,100.00
2023-02-15T10:44:28.764Z,100.00
2023-02-15T10:47:29.965Z,100.00
2023-02-15T10:50:15.524Z,100.00
2023-02-15T10:52:59.152Z,100.00
2023-02-15T10:55:39.304Z,100.00
2023-02-15T10:58:14.317Z,100.00
2023-02-15T11:00:47.907Z,100.00
2023-02-15T11:03:35.444Z,100.00
2023-02-15T11:06:11.302Z,100.00
2023-02-15T11:08:43.696Z,100.00
2023-02-15T11:11:17.581Z,100.00
2023-02-15T11:13:49.134Z,100.00
2023-02-15T11:16:22.875Z,100.00
2023-02-15T11:18:55.335Z,100.00
2023-02-15T11:21:26.497Z,100.00
2023-02-15T11:23:54.633Z,100.00
2023-02-15T11:26:30.654Z,100.00
2023-02-15T11:29:03.491Z,100.00
2023-02-15T11:31:45.350Z,100.00
2023-02-15T11:34:21.004Z,100.00
2023-02-15T11:36:53.459Z,100.00
2023-02-15T11:39:24.162Z,100.00
2023-02-15T11:41:55.542Z,100.00
2023-02-15T11:44:27.280Z,100.00
2023-02-15T11:46:56.687Z,100.00
2023-02-15T11:49:32.511Z,100.00
2023-02-15T11:52:04.920Z,100.00
2023-02-15T11:54:34.634Z,100.00
2023-02-15T11:57:12.546Z,100.00
2023-02-15T11:59:44.120Z,100.00
2023-02-15T12:02:18.804Z,100.00
2023-02-15T12:04:53.259Z,100.00
2023-02-15T12:07:27.246Z,100.00
2023-02-15T12:10:01.288Z,100.00
2023-02-15T12:12:30.927Z,100.00
2023-02-15T12:15:00.734Z,100.00
2023-02-15T12:17:33.470Z,100.00
2023-02-15T12:20:04.176Z,100.00
2023-02-15T12:22:34.868Z,100.00
2023-02-15T12:25:06.984Z,100.00
2023-02-15T12:27:38.003Z,100.00
2023-02-15T12:30:09.582Z,100.00
2023-02-15T12:32:52.529Z,100.00
2023-02-15T12:35:29.185Z,100.00
2023-02-15T12:37:59.061Z,100.00
2023-02-15T12:40:31.294Z,100.00
2023-02-15T12:43:00.318Z,100.00
2023-02-15T12:45:31.222Z,100.00
2023-02-15T12:48:16.948Z,100.00
2023-02-15T12:50:46.278Z,100.00
2023-02-15T12:53:20.556Z,100.00
2023-02-15T12:55:54.335Z,100.00
2023-02-15T12:58:26.182Z,100.00
2023-02-15T13:01:13.780Z,100.00
2023-02-15T13:03:58.541Z,100.00
2023-02-15T13:06:27.863Z,100.00
2023-02-15T13:08:57.295Z,100.00
2023-02-15T13:11:31.141Z,100.00
2023-02-15T13:14:02.375Z,100.00
2023-02-15T13:16:33.122Z,100.00
2023-02-15T13:19:08.771Z,100.00
2023-02-15T13:21:41.556Z,100.00
2023-02-15T13:24:20.006Z,99.97
2023-02-15T13:26:49.842Z,99.49
2023-02-15T13:29:23.459Z,97.95
2023-02-15T13:31:53.886Z,97.70
2023-02-15T13:34:28.756Z,97.43
2023-02-15T13:37:04.964Z,97.96
2023-02-15T13:39:40.530Z,98.09
2023-02-15T13:42:22.543Z,96.79
2023-02-15T13:45:09.840Z,97.98
2023-02-15T13:47:47.884Z,97.13
2023-02-15T13:50:52.176Z,96.68
2023-02-15T13:53:37.259Z,97.91
2023-02-15T13:56:14.664Z,97.22
2023-02-15T13:59:10.976Z,96.89
2023-02-15T14:01:44.665Z,96.48
2023-02-15T14:04:52.733Z,96.42
2023-02-15T14:07:49.804Z,97.23
2023-02-15T14:10:34.534Z,95.85
2023-02-15T14:13:44.566Z,96.56
2023-02-15T14:16:21.553Z,99.09
2023-02-15T14:18:53.774Z,99.07
2023-02-15T14:21:29.974Z,98.99
2023-02-15T14:24:19.379Z,99.49
2023-02-15T14:26:54.859Z,99.64
2023-02-15T14:29:35.546Z,99.69
2023-02-15T14:32:15.903Z,100.00
2023-02-15T14:34:50.716Z,99.53
2023-02-15T14:37:24.419Z,99.38
2023-02-15T14:40:19.111Z,99.57
2023-02-15T14:42:57.152Z,100.00
2023-02-15T14:45:34.275Z,100.00
2023-02-15T14:48:11.005Z,100.00
2023-02-15T14:50:45.321Z,100.00
2023-02-15T14:53:36.812Z,100.00
2023-02-15T14:56:19.620Z,100.00
2023-02-15T14:59:16.422Z,100.00
2023-02-15T15:01:53.268Z,100.00
2023-02-15T15:04:28.325Z,100.00
2023-02-15T15:07:04.223Z,100.00
2023-02-15T15:09:35.330Z,100.00
2023-02-15T15:12:42.295Z,100.00
2023-02-15T15:15:15.504Z,100.00
2023-02-15T15:18:01.271Z,100.00
2023-02-15T15:20:50.216Z,100.00
2023-02-15T15:23:52.175Z,100.00
2023-02-15T15:26:25.964Z,100.00
2023-02-15T15:29:00.814Z,100.00
2023-02-15T15:31:38.963Z,100.00
2023-02-15T15:34:43.817Z,100.00
2023-02-15T15:37:40.808Z,100.00
2023-02-15T15:40:51.701Z,100.00
2023-02-15T15:43:37.362Z,100.00
2023-02-15T15:46:20.542Z,100.00
2023-02-15T15:48:48.817Z,100.00
2023-02-15T15:51:21.728Z,100.00
2023-02-15T15:53:54.172Z,100.00
2023-02-15T15:56:25.549Z,100.00
2023-02-15T15:58:58.228Z,100.00
2023-02-15T16:01:32.384Z,100.00
2023-02-15T16:04:01.459Z,100.00
2023-02-15T16:06:36.695Z,100.00
2023-02-15T16:09:17.436Z,100.00
2023-02-15T16:11:45.638Z,100.00
2023-02-15T16:14:16.295Z,100.00
2023-02-15T16:16:51.831Z,100.00
2023-02-15T16:19:26.468Z,100.00
2023-02-15T16:21:55.883Z,100.00
2023-02-15T16:25:00.454Z,100.00
2023-02-15T16:27:38.009Z,100.00
2023-02-15T16:30:26.455Z,100.00
2023-02-15T16:33:07.537Z,100.00
2023-02-15T16:35:36.185Z,100.00
2023-02-15T16:38:04.809Z,100.00
2023-02-15T16:40:42.903Z,100.00
2023-02-15T16:43:18.491Z,100.00
2023-02-15T16:45:46.701Z,100.00
2023-02-15T16:48:22.185Z,100.00
2023-02-15T16:50:54.712Z,100.00
2023-02-15T16:53:26.322Z,100.00
2023-02-15T16:55:57.555Z,100.00
2023-02-15T16:58:31.873Z,100.00
2023-02-15T17:01:02.170Z,100.00
2023-02-15T17:03:32.000Z,100.00
2023-02-15T17:06:01.841Z,100.00
2023-02-15T17:08:33.373Z,100.00
2023-02-15T17:11:20.564Z,100.00
2023-02-15T17:14:15.488Z,100.00
2023-02-15T17:16:50.116Z,100.00
2023-02-15T17:19:23.949Z,100.00
2023-02-15T17:21:54.972Z,100.00
2023-02-15T17:24:33.976Z,100.00
2023-02-15T17:27:05.987Z,100.00
2023-02-15T17:29:38.584Z,100.00
2023-02-15T17:32:08.751Z,100.00
2023-02-15T17:34:51.965Z,100.00
2023-02-15T17:37:32.114Z,100.00
2023-02-15T17:40:02.974Z,100.00
2023-02-15T17:42:30.948Z,100.00
2023-02-15T17:44:58.818Z,100.00
2023-02-15T17:47:27.974Z,100.00
2023-02-15T17:49:57.331Z,100.00
2023-02-15T17:52:26.288Z,100.00
2023-02-15T17:55:23.103Z,100.00
2023-02-15T17:57:51.496Z,100.00
2023-02-15T18:00:37.281Z,100.00
2023-02-15T18:03:23.150Z,100.00
2023-02-15T18:06:09.569Z,100.00
2023-02-15T18:08:54.963Z,100.00
2023-02-15T18:11:35.352Z,100.00
2023-02-15T18:14:03.449Z,100.00
2023-02-15T18:16:34.420Z,100.00
2023-02-15T18:19:04.813Z,100.00
2023-02-15T18:21:34.826Z,100.00
2023-02-15T18:24:02.806Z,100.00
2023-02-15T18:26:31.254Z,100.00
2023-02-15T18:28:59.273Z,100.00
2023-02-15T18:31:27.352Z,100.00
2023-02-15T18:33:57.711Z,100.00
2023-02-15T18:36:28.096Z,100.00
2023-02-15T18:38:57.986Z,100.00
2023-02-15T18:41:26.355Z,100.00
2023-02-15T18:43:55.504Z,100.00
2023-02-15T18:46:23.682Z,100.00
2023-02-15T18:48:51.631Z,100.00
2023-02-15T18:51:22.138Z,100.00
2023-02-15T18:53:52.788Z,100.00
2023-02-15T18:56:24.298Z,100.00
2023-02-15T18:58:52.411Z,100.00
2023-02-15T19:01:22.041Z,100.00
2023-02-15T19:03:52.154Z,100.00
2023-02-15T19:06:23.045Z,100.00
2023-02-15T19:08:53.514Z,100.00
2023-02-15T19:11:26.354Z,100.00
2023-02-15T19:13:55.218Z,100.00
2023-02-15T19:16:29.598Z,100.00
2023-02-15T19:18:57.875Z,100.00
2023-02-15T19:21:28.052Z,100.00
2023-02-15T19:23:57.452Z,100.00
2023-02-15T19:26:44.531Z,100.00
2023-02-15T19:29:14.854Z,100.00
2023-02-15T19:31:43.022Z,100.00
2023-02-15T19:34:15.789Z,100.00
2023-02-15T19:36:45.149Z,100.00
2023-02-15T19:39:24.866Z,100.00
2023-02-15T19:41:55.592Z,100.00
2023-02-15T19:44:23.510Z,100.00
2023-02-15T19:46:51.505Z,100.00
2023-02-15T19:49:19.355Z,100.00
2023-02-15T19:51:47.620Z,100.00
2023-02-15T19:54:22.689Z,100.00
2023-02-15T19:56:50.669Z,100.00
2023-02-15T19:59:27.653Z,100.00
2023-02-15T20:01:56.252Z,100.00
2023-02-15T20:04:24.578Z,100.00
2023-02-15T20:06:55.771Z,100.00
2023-02-15T20:09:26.055Z,100.00
2023-02-15T20:11:54.368Z,100.00
2023-02-15T20:14:24.276Z,100.00
2023-02-15T20:16:52.522Z,100.00
2023-02-15T20:19:20.357Z,100.00
2023-02-15T20:21:52.000Z,100.00
2023-02-15T20:24:23.134Z,100.00
2023-02-15T20:26:51.160Z,100.00
2023-02-15T20:29:20.287Z,100.00
2023-02-15T20:31:49.725Z,100.00
2023-02-15T20:34:17.983Z,100.00
2023-02-15T20:36:45.868Z,100.00
2023-02-15T20:39:16.657Z,100.00
2023-02-15T20:41:48.198Z,100.00
2023-02-15T20:44:20.266Z,100.00
2023-02-15T20:46:50.560Z,100.00
2023-02-15T20:49:18.480Z,100.00
2023-02-15T20:51:47.494Z,100.00
2023-02-15T20:54:17.736Z,100.00
2023-02-15T20:56:45.557Z,100.00
2023-02-15T20:59:22.017Z,100.00
2023-02-15T21:01:53.385Z,100.00
2023-02-15T21:04:24.964Z,100.00
2023-02-15T21:06:53.237Z,100.00
2023-02-15T21:09:21.262Z,100.00
2023-02-15T21:11:51.619Z,100.00
2023-02-15T21:14:21.126Z,100.00
2023-02-15T21:16:51.820Z,100.00
2023-02-15T21:19:22.360Z,100.00
2023-02-15T21:21:53.266Z,100.00
2023-02-15T21:24:25.029Z,100.00
2023-02-15T21:26:54.252Z,100.00
2023-02-15T21:29:24.920Z,100.00
2023-02-15T21:31:54.373Z,100.00
2023-02-15T21:34:22.520Z,100.00
2023-02-15T21:36:51.910Z,100.00
2023-02-15T21:39:22.735Z,100.00
2023-02-15T21:42:10.184Z,100.00
2023-02-15T21:44:55.546Z,100.00
2023-02-15T21:47:44.875Z,100.00
2023-02-15T21:50:32.427Z,100.00
2023-02-15T21:53:01.018Z,100.00
2023-02-15T21:55:29.049Z,100.00
2023-02-15T21:57:57.253Z,100.00
2023-02-15T22:00:26.342Z,100.00
2023-02-15T22:02:58.206Z,100.00
2023-02-15T22:05:29.484Z,100.00
2023-02-15T22:07:58.408Z,100.00
2023-02-15T22:10:29.401Z,100.00
2023-02-15T22:12:57.548Z,100.00
2023-02-15T22:15:30.233Z,100.00
2023-02-15T22:17:59.477Z,100.00
2023-02-15T22:20:27.536Z,100.00
2023-02-15T22:22:55.643Z,100.00
2023-02-15T22:25:26.234Z,100.00
2023-02-15T22:27:55.612Z,100.00
2023-02-15T22:30:28.912Z,100.00
2023-02-15T22:32:59.888Z,100.00
2023-02-15T22:35:29.861Z,100.00
2023-02-15T22:37:58.499Z,100.00
2023-02-15T22:40:30.638Z,100.00
2023-02-15T22:43:01.717Z,100.00
2023-02-15T22:45:29.620Z,100.00
2023-02-15T22:48:01.088Z,100.00
2023-02-15T22:50:30.890Z,100.00
2023-02-15T22:53:01.165Z,100.00
2023-02-15T22:55:31.801Z,100.00
2023-02-15T22:58:00.717Z,100.00
2023-02-15T23:00:30.604Z,100.00
2023-02-15T23:03:00.160Z,100.00
2023-02-15T23:05:31.901Z,100.00
2023-02-15T23:07:59.721Z,100.00
2023-02-15T23:10:29.769Z,100.00
2023-02-15T23:13:17.445Z,100.00
2023-02-15T23:15:51.727Z,100.00
2023-02-15T23:18:28.444Z,100.00
2023-02-15T23:20:58.012Z,100.00
2023-02-15T23:23:30.771Z,100.00
2023-02-15T23:25:58.727Z,100.00
2023-02-15T23:28:29.837Z,100.00
2023-02-15T23:30:59.745Z,100.00
2023-02-15T23:33:32.689Z,100.00
2023-02-15T23:36:01.019Z,100.00
2023-02-15T23:38:31.335Z,100.00
2023-02-15T23:41:18.671Z,100.00
2023-02-15T23:43:50.326Z,100.00
2023-02-15T23:46:24.950Z,100.00
2023-02-15T23:48:55.189Z,100.00
2023-02-15T23:51:24.591Z,100.00
2023-02-15T23:53:52.682Z,100.00
2023-02-15T23:56:20.641Z,100.00
2023-02-15T23:58:49.125Z,100.00
